Time;durP1;ratioP1;P1;durP2;ratioP2;P2;SDS_P1;SDS_P2;PMS_P1;PMS_P2;Temp;Humidity;BMP_temperature;BMP_pressure;BME280_temperature;BME280_humidity;BME280_pressure;Samples;Min_cycle;Max_cycle;Signal;HPM_P1;HPM_P2
2022/07/01 00:02:01;;;;;;;9.75;9.45;;;21.10;99.90;;;;;;5061058;28;20242;-88
2022/07/01 00:04:28;;;;;;;9.40;9.10;;;21.10;99.90;;;;;;5059845;28;20334;-89
2022/07/01 00:06:56;;;;;;;9.85;9.55;;;21.10;99.90;;;;;;5060513;28;20230;-89
2022/07/01 00:09:24;;;;;;;9.70;9.40;;;21.00;99.90;;;;;;5059261;28;20258;-89
2022/07/01 00:11:52;;;;;;;9.50;9.20;;;21.00;99.90;;;;;;5058585;28;20231;-88
2022/07/01 00:14:22;;;;;;;9.70;9.40;;;21.00;99.90;;;;;;5058738;28;20231;-88
2022/07/01 00:16:50;;;;;;;9.27;8.98;;;20.90;99.90;;;;;;5059467;28;20255;-89
2022/07/01 00:19:20;;;;;;;8.93;8.73;;;20.90;99.90;;;;;;5059504;28;20314;-88
2022/07/01 00:21:49;;;;;;;9.00;8.80;;;20.90;99.90;;;;;;5058914;28;20325;-88
2022/07/01 00:24:17;;;;;;;8.82;8.63;;;20.80;99.90;;;;;;5063281;28;20241;-88
2022/07/01 00:26:48;;;;;;;9.30;9.00;;;20.80;99.90;;;;;;5059813;28;20233;-89
2022/07/01 00:29:20;;;;;;;9.30;9.00;;;20.70;99.90;;;;;;5067882;28;20278;-88
2022/07/01 00:31:54;;;;;;;9.27;8.98;;;20.70;99.90;;;;;;5062759;28;20235;-88
2022/07/01 00:34:23;;;;;;;9.27;8.98;;;20.70;99.90;;;;;;5062395;28;20237;-89
2022/07/01 00:36:53;;;;;;;9.60;9.30;;;20.60;99.90;;;;;;5062919;28;20289;-89
2022/07/01 00:39:30;;;;;;;9.50;9.20;;;20.50;99.90;;;;;;5060054;28;20231;-89
2022/07/01 00:42:01;;;;;;;9.50;9.20;;;20.60;99.90;;;;;;5059248;28;20255;-88
2022/07/01 00:44:29;;;;;;;9.68;9.38;;;20.60;99.90;;;;;;5060347;28;20223;-88
2022/07/01 00:47:03;;;;;;;9.40;9.10;;;20.50;99.90;;;;;;5058386;28;20703;-87
2022/07/01 00:49:37;;;;;;;9.20;8.90;;;20.40;99.90;;;;;;5058575;28;20235;-88
2022/07/01 00:52:05;;;;;;;9.40;9.10;;;20.40;99.90;;;;;;5058038;28;20242;-87
2022/07/01 00:54:37;;;;;;;9.60;9.30;;;20.40;99.90;;;;;;5058057;28;20242;-88
2022/07/01 00:57:09;;;;;;;9.32;9.02;;;20.30;99.90;;;;;;5058824;28;20309;-88
2022/07/01 00:59:38;;;;;;;9.52;9.23;;;20.10;99.90;;;;;;5058732;28;21006;-90
2022/07/01 01:02:08;;;;;;;9.63;9.32;;;20.00;99.90;;;;;;5058839;28;20239;-88
2022/07/01 01:04:43;;;;;;;9.60;9.30;;;20.00;99.90;;;;;;5058013;28;20238;-90
2022/07/01 01:07:10;;;;;;;9.32;9.02;;;19.90;99.90;;;;;;5057992;28;20225;-90
2022/07/01 01:09:38;;;;;;;9.40;9.10;;;19.80;99.90;;;;;;5058797;28;20231;-87
2022/07/01 01:12:11;;;;;;;9.50;9.20;;;19.70;99.90;;;;;;5058557;28;20292;-87
2022/07/01 01:14:46;;;;;;;9.48;9.18;;;19.60;99.90;;;;;;5058271;28;20306;-88
2022/07/01 01:17:17;;;;;;;9.43;9.13;;;19.60;99.90;;;;;;5058743;28;20244;-88
2022/07/01 01:19:47;;;;;;;9.23;8.93;;;19.40;99.90;;;;;;5057883;28;20234;-89
2022/07/01 01:22:21;;;;;;;9.50;9.20;;;19.40;99.90;;;;;;5056976;28;20300;-89
2022/07/01 01:24:51;;;;;;;9.75;9.45;;;19.20;99.90;;;;;;5058531;28;20234;-89
2022/07/01 01:27:19;;;;;;;9.38;9.07;;;19.20;99.90;;;;;;5057593;28;20270;-88
2022/07/01 01:29:47;;;;;;;9.70;9.40;;;19.10;99.90;;;;;;5057845;28;20230;-89
2022/07/01 01:32:15;;;;;;;9.40;9.10;;;18.90;99.90;;;;;;5058262;28;20330;-89
2022/07/01 01:34:43;;;;;;;9.85;9.55;;;18.80;99.90;;;;;;5058226;28;20227;-89
2022/07/01 01:37:11;;;;;;;9.50;9.20;;;18.60;99.90;;;;;;5057850;28;20313;-89
2022/07/01 01:39:44;;;;;;;9.52;9.23;;;18.60;99.90;;;;;;5058298;28;20299;-88
2022/07/01 01:42:12;;;;;;;9.70;9.40;;;18.50;99.90;;;;;;5058085;28;20235;-89
2022/07/01 01:44:43;;;;;;;9.32;9.02;;;18.50;99.90;;;;;;5057075;28;20239;-89
2022/07/01 01:47:11;;;;;;;9.45;9.15;;;18.50;99.90;;;;;;5057578;28;20234;-90
2022/07/01 01:49:44;;;;;;;9.30;9.00;;;18.40;99.90;;;;;;5058438;28;20235;-89
2022/07/01 01:52:12;;;;;;;9.20;8.90;;;18.40;99.90;;;;;;5057118;28;20231;-89
2022/07/01 01:54:40;;;;;;;9.30;9.00;;;18.40;99.90;;;;;;5056610;28;20238;-88
2022/07/01 01:57:13;;;;;;;9.10;8.85;;;18.30;99.90;;;;;;5056907;28;20255;-88
2022/07/01 01:59:41;;;;;;;8.88;8.68;;;18.40;99.90;;;;;;5057469;28;20230;-88
2022/07/01 02:02:09;;;;;;;8.90;8.70;;;18.20;99.90;;;;;;5057441;28;20262;-88
2022/07/01 02:04:46;;;;;;;9.20;8.90;;;18.20;99.90;;;;;;5057668;28;20318;-89
2022/07/01 02:07:14;;;;;;;9.07;8.85;;;18.10;99.90;;;;;;5057856;28;20242;-88
2022/07/01 02:09:49;;;;;;;9.00;8.80;;;18.20;99.90;;;;;;5057499;28;20231;-88
2022/07/01 02:12:25;;;;;;;9.20;8.90;;;18.20;99.90;;;;;;5056323;28;20238;-88
2022/07/01 02:14:55;;;;;;;9.43;9.13;;;18.20;99.90;;;;;;5060099;28;20227;-88
2022/07/01 02:17:26;;;;;;;8.98;8.77;;;18.20;99.90;;;;;;5058187;28;20257;-88
2022/07/01 02:20:00;;;;;;;8.95;8.75;;;18.20;99.90;;;;;;5057477;28;20250;-88
2022/07/01 02:22:31;;;;;;;9.20;8.90;;;18.20;99.90;;;;;;5057018;28;20238;-88
2022/07/01 02:25:02;;;;;;;9.40;9.10;;;18.10;99.90;;;;;;5056929;28;20230;-88
2022/07/01 02:27:42;;;;;;;9.02;8.82;;;18.00;99.90;;;;;;5057742;28;20242;-88
2022/07/01 02:30:13;;;;;;;9.30;9.00;;;18.00;99.90;;;;;;5056985;28;20304;-87
2022/07/01 02:32:42;;;;;;;9.55;9.25;;;18.00;99.90;;;;;;5056746;28;20326;-88
2022/07/01 02:35:11;;;;;;;9.20;8.90;;;17.90;99.90;;;;;;5057527;28;20258;-88
2022/07/01 02:37:39;;;;;;;9.30;9.00;;;17.80;99.90;;;;;;5057297;28;20254;-88
2022/07/01 02:40:12;;;;;;;9.02;8.82;;;17.70;99.90;;;;;;5058278;28;20262;-88
2022/07/01 02:42:42;;;;;;;8.80;8.60;;;17.60;99.90;;;;;;5056181;28;20318;-88
2022/07/01 02:45:10;;;;;;;9.00;8.80;;;17.60;99.90;;;;;;5056552;28;20245;-89
2022/07/01 02:47:40;;;;;;;8.68;8.48;;;17.70;99.90;;;;;;5056369;28;20262;-88
2022/07/01 02:50:11;;;;;;;8.70;8.50;;;17.60;99.90;;;;;;5056460;28;20223;-89
2022/07/01 02:53:09;;;;;;;8.50;8.30;;;17.60;99.90;;;;;;5057700;28;20249;-89
2022/07/01 02:55:44;;;;;;;8.50;8.30;;;17.60;99.90;;;;;;5028531;28;20246;-89
2022/07/01 02:58:25;;;;;;;8.20;8.00;;;17.60;99.90;;;;;;5057203;28;20234;-88
2022/07/01 03:00:59;;;;;;;8.70;8.50;;;17.60;99.90;;;;;;5058332;28;20257;-89
2022/07/01 03:03:43;;;;;;;9.48;9.18;;;17.60;99.90;;;;;;5063902;28;20279;-88
2022/07/01 03:06:22;;;;;;;9.60;9.30;;;17.60;99.90;;;;;;5069362;28;20226;-89
2022/07/01 03:08:55;;;;;;;9.68;9.38;;;17.60;99.90;;;;;;5071694;28;20329;-89
2022/07/01 03:11:26;;;;;;;9.30;9.00;;;17.50;99.90;;;;;;5065988;28;20235;-89
2022/07/01 03:13:57;;;;;;;9.35;9.05;;;17.40;99.90;;;;;;5078557;28;20267;-89
2022/07/01 03:16:26;;;;;;;9.45;9.15;;;17.40;99.90;;;;;;5082843;28;20199;-89
2022/07/01 03:18:57;;;;;;;9.40;9.10;;;17.20;99.90;;;;;;5081019;28;20253;-89
2022/07/01 03:21:45;;;;;;;9.73;9.43;;;17.10;99.90;;;;;;5070086;28;20324;-89
2022/07/01 03:24:17;;;;;;;9.68;9.38;;;17.10;99.90;;;;;;5068505;28;20245;-89
2022/07/01 03:26:46;;;;;;;9.70;9.40;;;17.10;99.90;;;;;;5059906;28;20233;-89
2022/07/01 03:29:20;;;;;;;9.40;9.10;;;17.20;99.90;;;;;;5059667;28;20234;-89
2022/07/01 03:31:48;;;;;;;9.60;9.30;;;17.20;99.90;;;;;;5059725;28;20238;-90
2022/07/01 03:34:16;;;;;;;9.57;9.27;;;17.10;99.90;;;;;;5060015;28;20315;-89
2022/07/01 03:36:44;;;;;;;9.77;9.48;;;17.10;99.90;;;;;;5065132;28;20199;-89
2022/07/01 03:39:12;;;;;;;9.40;9.10;;;17.10;99.90;;;;;;5072048;28;20231;-90
2022/07/01 03:41:41;;;;;;;9.40;9.10;;;17.10;99.90;;;;;;5065226;28;20235;-90
2022/07/01 03:44:09;;;;;;;9.40;9.10;;;17.20;99.90;;;;;;5070620;28;20314;-91
2022/07/01 03:46:39;;;;;;;9.30;9.00;;;17.20;99.90;;;;;;5079488;28;20218;-88
2022/07/01 03:49:10;;;;;;;9.40;9.10;;;17.20;99.90;;;;;;5072963;28;20237;-90
2022/07/01 03:54:31;;;;;;;9.40;9.10;;;17.20;99.90;;;;;;5062043;28;20223;-90
2022/07/01 03:56:59;;;;;;;9.40;9.10;;;17.10;99.90;;;;;;5071886;28;20231;-88
2022/07/01 03:59:30;;;;;;;9.98;9.68;;;17.10;99.90;;;;;;5077910;28;20230;-88
2022/07/01 04:02:05;;;;;;;9.55;9.25;;;17.00;99.90;;;;;;5074797;28;20238;-87
2022/07/01 04:04:39;;;;;;;10.05;9.75;;;16.90;99.90;;;;;;5059230;28;20247;-88
2022/07/01 04:07:11;;;;;;;9.95;9.65;;;16.80;99.90;;;;;;5059233;28;20230;-89
2022/07/01 04:09:46;;;;;;;9.70;9.40;;;16.80;99.90;;;;;;5058847;28;20233;-88
2022/07/01 04:12:36;;;;;;;9.82;9.52;;;16.80;99.90;;;;;;5058073;28;20242;-88
2022/07/01 04:15:38;;;;;;;10.00;9.70;;;16.70;99.90;;;;;;5059061;28;20235;-88
2022/07/01 04:18:17;;;;;;;10.13;9.82;;;16.70;99.90;;;;;;5059392;28;20278;-88
2022/07/01 04:22:32;;;;;;;10.23;9.93;;;16.60;99.90;;;;;;5059261;28;20229;-88
2022/07/01 04:23:35;;;;;;;10.25;9.95;;;16.60;99.90;;;;;;5058238;28;20235;-86
2022/07/01 04:26:04;;;;;;;10.20;9.90;;;16.50;99.90;;;;;;5058420;28;20231;-84
2022/07/01 04:28:31;;;;;;;9.90;9.60;;;16.50;99.90;;;;;;5058768;28;20238;-86
2022/07/01 04:30:59;;;;;;;9.75;9.45;;;16.50;99.90;;;;;;5059956;28;20254;-85
2022/07/01 04:33:28;;;;;;;9.80;9.50;;;16.50;99.90;;;;;;5058653;28;20326;-85
2022/07/01 04:35:56;;;;;;;9.80;9.50;;;16.50;99.90;;;;;;5058381;28;20226;-85
2022/07/01 04:38:24;;;;;;;9.68;9.38;;;16.50;99.90;;;;;;5058421;28;20234;-85
2022/07/01 04:43:33;;;;;;;9.48;9.18;;;16.50;99.90;;;;;;5057275;28;20234;-85
2022/07/01 04:46:01;;;;;;;9.60;9.30;;;16.50;99.90;;;;;;5056637;28;20300;-85
2022/07/01 04:48:30;;;;;;;9.50;9.20;;;16.50;99.90;;;;;;5058118;28;20231;-85
2022/07/01 04:50:57;;;;;;;9.35;9.05;;;16.50;99.90;;;;;;5057814;28;20258;-85
2022/07/01 04:53:25;;;;;;;9.30;9.00;;;16.40;99.90;;;;;;5059158;28;20254;-85
2022/07/01 04:55:52;;;;;;;9.32;9.02;;;16.30;99.90;;;;;;5057550;28;20231;-85
2022/07/01 04:58:20;;;;;;;9.20;8.90;;;16.30;99.90;;;;;;5057921;28;20226;-85
2022/07/01 05:00:48;;;;;;;9.20;8.90;;;16.30;99.90;;;;;;5058492;28;20227;-85
2022/07/01 05:03:16;;;;;;;9.18;8.88;;;16.40;99.90;;;;;;5057761;28;20239;-85
2022/07/01 05:05:45;;;;;;;9.02;8.75;;;16.40;99.90;;;;;;5057514;28;20240;-86
2022/07/01 05:08:13;;;;;;;8.82;8.63;;;16.50;99.90;;;;;;5058292;28;20262;-85
2022/07/01 05:10:41;;;;;;;9.10;8.80;;;16.50;99.90;;;;;;5058718;28;20231;-85
2022/07/01 05:13:08;;;;;;;9.45;9.15;;;16.40;99.90;;;;;;5096200;22;20244;-83
2022/07/01 05:15:35;;;;;;;9.35;9.05;;;16.40;99.90;;;;;;5080277;28;20264;-83
2022/07/01 05:23:35;;;;;;;9.45;9.15;;;16.40;99.90;;;;;;5062749;28;20222;-82
2022/07/01 05:26:03;;;;;;;9.45;9.15;;;16.30;99.90;;;;;;5059614;28;20239;-82
2022/07/01 05:28:30;;;;;;;9.07;8.80;;;16.20;99.90;;;;;;5059563;28;20227;-82
2022/07/01 05:30:58;;;;;;;9.23;8.93;;;16.20;99.90;;;;;;5060482;28;20257;-82
2022/07/01 05:33:26;;;;;;;9.07;8.77;;;16.10;99.90;;;;;;5059442;28;20269;-82
2022/07/01 05:35:55;;;;;;;9.20;8.90;;;16.10;99.90;;;;;;5059588;28;20230;-82
2022/07/01 05:38:23;;;;;;;9.27;8.98;;;16.00;99.90;;;;;;5059971;28;20221;-82
2022/07/01 05:40:52;;;;;;;9.40;9.10;;;15.90;99.90;;;;;;5060318;28;20266;-82
2022/07/01 05:43:20;;;;;;;9.70;9.40;;;15.90;99.90;;;;;;5059948;28;20314;-83
2022/07/01 05:45:48;;;;;;;9.57;9.27;;;15.80;99.90;;;;;;5062878;28;20261;-83
2022/07/01 05:48:15;;;;;;;9.60;9.30;;;15.80;99.90;;;;;;5062282;28;20227;-83
2022/07/01 05:50:44;;;;;;;9.30;9.00;;;15.80;99.90;;;;;;5061837;28;20293;-83
2022/07/01 05:53:13;;;;;;;9.40;9.10;;;15.80;99.90;;;;;;5060228;28;20241;-83
2022/07/01 05:55:41;;;;;;;9.57;9.27;;;15.60;99.90;;;;;;5060421;28;20241;-83
2022/07/01 05:58:09;;;;;;;9.73;9.43;;;15.60;99.90;;;;;;5061042;28;20290;-83
2022/07/01 06:00:37;;;;;;;9.48;9.18;;;15.50;99.90;;;;;;5060033;28;20238;-83
2022/07/01 06:03:05;;;;;;;9.38;9.07;;;15.50;99.90;;;;;;5060631;28;20234;-83
2022/07/01 06:05:32;;;;;;;9.60;9.30;;;15.50;99.90;;;;;;5059164;28;20284;-83
2022/07/01 06:08:00;;;;;;;9.60;9.30;;;15.50;99.90;;;;;;5060180;28;20222;-82
2022/07/01 06:10:29;;;;;;;9.40;9.10;;;15.40;99.90;;;;;;5060413;28;20235;-82
2022/07/01 06:12:57;;;;;;;9.80;9.50;;;15.40;99.90;;;;;;5059461;28;20237;-83
2022/07/01 06:15:25;;;;;;;9.40;9.10;;;15.30;99.90;;;;;;5059970;28;20320;-83
2022/07/01 06:17:53;;;;;;;9.90;9.60;;;15.30;99.90;;;;;;5059203;28;20230;-84
2022/07/01 06:20:21;;;;;;;9.75;9.45;;;15.30;99.90;;;;;;5059008;28;20241;-83
2022/07/01 06:22:49;;;;;;;9.98;9.68;;;15.40;99.90;;;;;;5058696;28;20273;-83
2022/07/01 06:25:16;;;;;;;9.77;9.48;;;15.40;99.90;;;;;;5058904;28;20251;-83
2022/07/01 06:27:46;;;;;;;9.90;9.60;;;15.40;99.90;;;;;;5058689;28;20262;-83
2022/07/01 06:30:14;;;;;;;9.95;9.65;;;15.40;99.90;;;;;;5059434;28;20231;-83
2022/07/01 06:32:42;;;;;;;9.85;9.55;;;15.40;99.90;;;;;;5058901;28;20238;-83
2022/07/01 06:35:10;;;;;;;9.80;9.50;;;15.40;99.90;;;;;;5058855;28;20227;-83
2022/07/01 06:37:38;;;;;;;9.68;9.38;;;15.40;99.90;;;;;;5058923;28;20247;-83
2022/07/01 06:40:08;;;;;;;9.60;9.30;;;15.50;99.90;;;;;;5075435;28;20246;-83
2022/07/01 06:42:36;;;;;;;9.63;9.32;;;15.50;99.90;;;;;;5075935;28;20231;-83
2022/07/01 06:45:06;;;;;;;9.70;9.40;;;15.50;99.90;;;;;;5074203;28;20234;-83
2022/07/01 06:47:34;;;;;;;9.88;9.57;;;15.60;99.90;;;;;;5062995;28;20238;-83
2022/07/01 06:50:01;;;;;;;9.60;9.30;;;15.60;99.90;;;;;;5060966;28;20330;-83
2022/07/01 06:52:29;;;;;;;9.80;9.50;;;15.60;99.90;;;;;;5060646;28;20262;-83
2022/07/01 06:54:56;;;;;;;9.55;9.25;;;15.60;99.90;;;;;;5060220;28;20235;-83
2022/07/01 06:57:24;;;;;;;9.65;9.35;;;15.50;99.90;;;;;;5059635;28;20281;-83
2022/07/01 06:59:51;;;;;;;9.73;9.43;;;15.50;99.90;;;;;;5059477;28;20233;-83
2022/07/01 07:02:20;;;;;;;9.60;9.30;;;15.50;99.90;;;;;;5059505;28;20243;-83
2022/07/01 07:04:54;;;;;;;9.65;9.35;;;15.50;99.90;;;;;;5059481;28;20272;-83
2022/07/01 07:07:21;;;;;;;10.00;9.70;;;15.40;99.90;;;;;;5059884;28;20235;-84
2022/07/01 07:09:49;;;;;;;9.60;9.30;;;15.40;99.90;;;;;;5059884;28;20231;-84
2022/07/01 07:12:16;;;;;;;9.73;9.43;;;15.30;99.90;;;;;;5059215;28;20246;-84
2022/07/01 07:14:44;;;;;;;10.10;9.80;;;15.30;99.90;;;;;;5059301;28;20218;-83
2022/07/01 07:17:12;;;;;;;10.20;9.90;;;15.40;99.90;;;;;;5059503;28;20237;-84
2022/07/01 07:19:41;;;;;;;10.00;9.70;;;15.30;99.90;;;;;;5058974;28;20258;-83
2022/07/01 07:22:08;;;;;;;10.20;9.90;;;15.30;99.90;;;;;;5057660;28;20295;-83
2022/07/01 07:24:36;;;;;;;10.00;9.70;;;15.30;99.90;;;;;;5058433;28;20239;-83
2022/07/01 07:27:05;;;;;;;10.00;9.70;;;15.30;99.90;;;;;;5069609;28;20207;-83
2022/07/01 07:29:33;;;;;;;9.90;9.60;;;15.30;99.90;;;;;;5073525;28;20269;-83
2022/07/01 07:32:00;;;;;;;10.10;9.80;;;15.20;99.90;;;;;;5062207;28;20258;-84
2022/07/01 07:34:28;;;;;;;9.85;9.55;;;15.20;99.90;;;;;;5060749;28;20291;-84
2022/07/01 07:36:57;;;;;;;9.73;9.43;;;15.10;99.90;;;;;;5060466;28;20230;-83
2022/07/01 07:39:24;;;;;;;9.57;9.27;;;15.10;99.90;;;;;;5060217;28;20354;-83
2022/07/01 07:41:52;;;;;;;9.38;9.07;;;15.10;99.90;;;;;;5059596;28;20235;-83
2022/07/01 07:44:19;;;;;;;9.50;9.20;;;15.20;99.90;;;;;;5059334;28;20269;-83
2022/07/01 07:46:47;;;;;;;9.30;9.00;;;15.10;99.90;;;;;;5058828;28;20270;-83
2022/07/01 07:49:15;;;;;;;9.40;9.10;;;15.10;99.90;;;;;;5058794;28;20255;-83
2022/07/01 07:51:42;;;;;;;9.32;9.02;;;15.20;99.90;;;;;;5060775;28;20239;-83
2022/07/01 07:54:11;;;;;;;9.60;9.30;;;15.30;99.90;;;;;;5061722;28;20306;-83
2022/07/01 07:56:39;;;;;;;9.40;9.10;;;15.30;99.90;;;;;;5061470;28;20222;-83
2022/07/01 07:59:06;;;;;;;9.40;9.10;;;15.30;99.90;;;;;;5061466;28;20322;-83
2022/07/01 08:01:34;;;;;;;9.43;9.13;;;15.40;99.90;;;;;;5061911;28;20227;-83
2022/07/01 08:04:02;;;;;;;9.38;9.07;;;15.40;99.90;;;;;;5061666;28;20304;-83
2022/07/01 08:06:29;;;;;;;9.68;9.38;;;15.40;99.90;;;;;;5061626;28;20342;-83
2022/07/01 08:08:57;;;;;;;9.65;9.35;;;15.40;99.90;;;;;;5061159;28;20242;-83
2022/07/01 08:11:28;;;;;;;9.18;8.88;;;15.40;99.90;;;;;;5060895;28;20266;-84
2022/07/01 08:13:56;;;;;;;9.80;9.50;;;15.40;99.90;;;;;;5061480;28;20301;-83
2022/07/01 08:16:24;;;;;;;9.80;9.50;;;15.30;99.90;;;;;;5061402;28;20300;-83
2022/07/01 08:18:55;;;;;;;9.50;9.20;;;15.30;99.90;;;;;;5060847;28;20242;-83
2022/07/01 08:21:23;;;;;;;9.15;8.85;;;15.30;99.90;;;;;;5061042;28;20222;-83
2022/07/01 08:23:50;;;;;;;9.15;8.90;;;15.50;99.90;;;;;;5061637;28;20227;-83
2022/07/01 08:26:18;;;;;;;9.23;8.93;;;15.50;99.90;;;;;;5060571;28;20257;-83
2022/07/01 08:28:47;;;;;;;9.10;8.90;;;15.40;99.90;;;;;;5060614;28;20330;-83
2022/07/01 08:31:15;;;;;;;9.18;8.88;;;15.40;99.90;;;;;;5060496;28;20285;-83
2022/07/01 08:33:43;;;;;;;9.30;9.00;;;15.40;99.90;;;;;;5060560;28;20318;-83
2022/07/01 08:36:13;;;;;;;8.82;8.63;;;15.50;99.90;;;;;;5062204;28;20238;-83
2022/07/01 08:38:42;;;;;;;8.82;8.63;;;15.50;99.90;;;;;;5061544;28;20235;-83
2022/07/01 08:41:09;;;;;;;9.20;8.90;;;15.60;99.90;;;;;;5061336;28;20235;-83
2022/07/01 08:43:38;;;;;;;9.05;8.82;;;15.70;99.90;;;;;;5060480;28;20239;-83
2022/07/01 08:46:11;;;;;;;9.85;9.55;;;15.70;99.90;;;;;;5059978;28;20318;-83
2022/07/01 08:48:43;;;;;;;9.57;9.27;;;15.80;99.90;;;;;;5061383;28;20305;-83
2022/07/01 08:51:11;;;;;;;9.70;9.40;;;15.80;99.90;;;;;;5062249;28;20235;-83
2022/07/01 08:53:40;;;;;;;9.43;9.13;;;15.80;99.90;;;;;;5059780;28;20314;-83
2022/07/01 08:58:53;;;;;;;9.68;9.38;;;15.70;99.90;;;;;;5060354;28;20250;-83
2022/07/01 09:01:24;;;;;;;9.40;9.10;;;15.70;99.90;;;;;;5059894;28;20286;-83
2022/07/01 09:03:55;;;;;;;9.50;9.20;;;15.70;99.90;;;;;;5059834;28;20237;-83
2022/07/01 09:06:25;;;;;;;9.18;8.88;;;15.70;99.90;;;;;;5059681;28;20245;-83
2022/07/01 09:08:52;;;;;;;9.10;8.80;;;15.70;99.90;;;;;;5059961;28;20238;-83
2022/07/01 09:11:22;;;;;;;9.40;9.10;;;15.60;99.90;;;;;;5060112;28;20235;-83
2022/07/01 09:14:09;;;;;;;9.40;9.10;;;15.60;99.90;;;;;;5059790;28;20301;-84
2022/07/01 09:16:44;;;;;;;9.35;9.05;;;15.50;99.90;;;;;;5059229;28;20227;-83
2022/07/01 09:19:12;;;;;;;9.50;9.20;;;15.40;99.90;;;;;;5060358;28;20219;-83
2022/07/01 09:21:40;;;;;;;9.20;8.90;;;15.60;99.90;;;;;;5059350;28;20259;-83
2022/07/01 09:24:26;;;;;;;9.15;8.85;;;15.60;99.90;;;;;;5059851;28;20265;-83
2022/07/01 09:26:55;;;;;;;9.05;8.77;;;15.60;99.90;;;;;;5059667;28;20227;-83
2022/07/01 09:29:32;;;;;;;9.50;9.20;;;15.70;99.90;;;;;;5059308;28;20288;-83
2022/07/01 09:32:02;;;;;;;8.80;8.60;;;15.70;99.90;;;;;;5059284;28;20242;-83
2022/07/01 09:34:34;;;;;;;9.20;8.90;;;15.80;99.90;;;;;;5058908;28;20207;-84
2022/07/01 09:37:03;;;;;;;9.00;8.70;;;15.80;99.90;;;;;;5058472;28;20226;-83
2022/07/01 09:39:31;;;;;;;9.18;8.88;;;15.90;99.90;;;;;;5058923;28;20282;-83
2022/07/01 09:41:59;;;;;;;8.88;8.68;;;15.90;99.90;;;;;;5059385;28;20235;-83
2022/07/01 09:44:28;;;;;;;9.30;9.00;;;15.90;99.90;;;;;;5058868;28;20243;-84
2022/07/01 09:46:58;;;;;;;8.77;8.57;;;15.90;99.90;;;;;;5058973;28;20238;-83
2022/07/01 09:49:30;;;;;;;8.70;8.50;;;15.90;99.90;;;;;;5058726;28;20285;-83
2022/07/01 09:51:57;;;;;;;9.40;9.10;;;16.00;99.90;;;;;;5058562;28;20269;-83
2022/07/01 09:54:25;;;;;;;9.30;9.00;;;16.10;99.90;;;;;;5059104;28;20253;-84
2022/07/01 09:56:52;;;;;;;9.23;8.93;;;16.10;99.90;;;;;;5059094;28;20285;-83
2022/07/01 09:59:20;;;;;;;8.65;8.45;;;16.10;99.90;;;;;;5059024;28;20304;-83
2022/07/01 10:01:48;;;;;;;8.80;8.60;;;16.10;99.90;;;;;;5059014;28;20290;-83
2022/07/01 10:04:19;;;;;;;9.23;8.93;;;16.20;99.90;;;;;;5059380;28;20238;-84
2022/07/01 10:07:16;;;;;;;8.80;8.60;;;16.20;99.90;;;;;;5058933;28;20235;-84
2022/07/01 10:10:14;;;;;;;8.90;8.70;;;16.30;99.90;;;;;;5059457;28;20222;-84
2022/07/01 10:12:43;;;;;;;8.82;8.63;;;16.10;99.90;;;;;;5059167;28;20306;-83
2022/07/01 10:15:17;;;;;;;9.10;8.80;;;16.20;99.90;;;;;;5057820;28;20261;-83
2022/07/01 10:17:47;;;;;;;9.20;8.90;;;16.20;99.90;;;;;;5059134;28;20306;-83
2022/07/01 10:20:17;;;;;;;8.82;8.63;;;16.30;99.90;;;;;;5059161;28;20313;-83
2022/07/01 10:22:47;;;;;;;8.90;8.70;;;16.20;99.90;;;;;;5058688;28;20238;-83
2022/07/01 10:25:40;;;;;;;8.70;8.50;;;16.20;99.90;;;;;;5058815;28;20341;-83
2022/07/01 10:28:29;;;;;;;8.73;8.52;;;16.10;99.90;;;;;;5058629;28;20210;-83
2022/07/01 10:31:03;;;;;;;8.40;8.20;;;16.10;99.90;;;;;;5056350;28;20236;-83
2022/07/01 10:33:36;;;;;;;9.40;9.10;;;16.10;99.90;;;;;;5060869;28;20281;-84
2022/07/01 10:36:10;;;;;;;9.13;8.82;;;16.10;99.90;;;;;;5060359;28;20239;-84
2022/07/01 10:39:14;;;;;;;9.10;8.80;;;16.20;99.90;;;;;;5066878;28;20218;-83
2022/07/01 10:41:56;;;;;;;9.13;8.82;;;16.20;99.90;;;;;;5074575;28;20252;-84
2022/07/01 10:44:25;;;;;;;8.80;8.60;;;16.20;99.90;;;;;;5074334;28;20233;-83
2022/07/01 10:46:58;;;;;;;8.93;8.73;;;16.00;99.90;;;;;;5075664;28;20235;-83
2022/07/01 10:49:56;;;;;;;9.30;9.00;;;16.00;99.90;;;;;;5062012;28;20227;-83
2022/07/01 10:52:23;;;;;;;9.30;9.00;;;15.90;99.90;;;;;;5060185;28;20302;-84
2022/07/01 10:54:55;;;;;;;9.40;9.10;;;15.90;99.90;;;;;;5060797;28;20321;-84
2022/07/01 10:57:39;;;;;;;9.40;9.10;;;15.70;99.90;;;;;;5059384;28;20234;-83
2022/07/01 11:00:32;;;;;;;9.13;8.82;;;15.70;99.90;;;;;;5058845;28;20242;-84
2022/07/01 11:03:22;;;;;;;9.35;9.05;;;15.60;99.90;;;;;;5059449;28;20245;-83
2022/07/01 11:05:53;;;;;;;9.60;9.30;;;15.40;99.90;;;;;;5058770;28;20333;-83
2022/07/01 11:08:21;;;;;;;9.48;9.18;;;15.30;99.90;;;;;;5059320;28;20326;-83
2022/07/01 11:10:56;;;;;;;9.50;9.20;;;15.30;99.90;;;;;;5058914;28;20231;-83
2022/07/01 11:13:25;;;;;;;9.15;8.85;;;15.30;99.90;;;;;;5090096;22;20309;-86
2022/07/01 11:15:54;;;;;;;9.20;8.90;;;15.30;99.90;;;;;;5076266;28;20240;-87
2022/07/01 11:18:22;;;;;;;9.40;9.10;;;15.30;99.90;;;;;;5076595;28;20222;-87
2022/07/01 11:20:50;;;;;;;9.05;8.75;;;15.30;99.90;;;;;;5075838;28;20222;-87
2022/07/01 11:23:20;;;;;;;8.95;8.70;;;15.20;99.90;;;;;;5065562;28;20310;-87
2022/07/01 11:25:47;;;;;;;9.23;8.93;;;15.20;99.90;;;;;;5056065;28;20230;-86
2022/07/01 11:28:17;;;;;;;8.80;8.60;;;15.20;99.90;;;;;;5059826;28;20261;-87
2022/07/01 11:30:45;;;;;;;9.15;8.85;;;15.20;99.90;;;;;;5059288;28;20245;-86
2022/07/01 11:33:15;;;;;;;9.27;8.98;;;15.20;99.90;;;;;;5061244;28;20249;-86
2022/07/01 11:41:22;;;;;;;9.30;9.00;;;15.30;99.90;;;;;;5063551;28;20271;-86
2022/07/01 11:43:51;;;;;;;9.40;9.10;;;15.20;99.90;;;;;;5066701;28;20269;-86
2022/07/01 11:46:18;;;;;;;9.65;9.35;;;15.30;99.90;;;;;;5081786;28;20289;-86
2022/07/01 11:48:51;;;;;;;9.15;8.85;;;15.30;99.90;;;;;;5070195;28;20230;-86
2022/07/01 11:51:21;;;;;;;9.10;8.80;;;15.30;99.90;;;;;;5060786;28;20231;-87
2022/07/01 11:53:51;;;;;;;9.30;9.00;;;15.30;99.90;;;;;;5059040;28;20299;-86
2022/07/01 11:56:29;;;;;;;9.32;9.02;;;15.30;99.90;;;;;;5059266;28;20274;-87
2022/07/01 11:59:01;;;;;;;9.40;9.10;;;15.40;99.90;;;;;;5061947;28;20230;-87
2022/07/01 12:01:34;;;;;;;9.32;9.02;;;15.40;99.90;;;;;;5060802;28;20235;-87
2022/07/01 12:04:03;;;;;;;9.55;9.25;;;15.30;99.90;;;;;;5059057;28;20230;-86
2022/07/01 12:06:32;;;;;;;9.40;9.10;;;15.30;99.90;;;;;;5058150;28;20316;-87
2022/07/01 12:09:01;;;;;;;9.52;9.23;;;15.20;99.90;;;;;;5059258;28;20238;-87
2022/07/01 12:11:30;;;;;;;9.45;9.15;;;15.30;99.90;;;;;;5059483;28;20250;-86
2022/07/01 12:13:59;;;;;;;9.50;9.20;;;15.30;99.90;;;;;;5060923;28;20238;-87
2022/07/01 12:16:27;;;;;;;9.32;9.02;;;15.30;99.90;;;;;;5061678;28;20238;-87
2022/07/01 12:18:58;;;;;;;9.40;9.10;;;15.40;99.90;;;;;;5059940;28;20261;-86
2022/07/01 12:21:27;;;;;;;9.70;9.40;;;15.40;99.90;;;;;;5059032;28;20221;-87
2022/07/01 12:24:13;;;;;;;9.50;9.20;;;15.40;99.90;;;;;;5060283;28;20308;-87
2022/07/01 12:26:53;;;;;;;9.60;9.30;;;15.30;99.90;;;;;;5058723;28;20245;-86
2022/07/01 12:29:24;;;;;;;9.82;9.52;;;15.30;99.90;;;;;;5058867;28;20976;-86
2022/07/01 12:32:05;;;;;;;9.20;8.90;;;15.20;99.90;;;;;;5060003;28;20250;-86
2022/07/01 12:34:42;;;;;;;9.30;9.00;;;15.20;99.90;;;;;;5059723;28;20237;-87
2022/07/01 12:37:13;;;;;;;9.52;9.23;;;15.20;99.90;;;;;;5059051;28;20246;-87
2022/07/01 12:39:52;;;;;;;9.50;9.20;;;15.30;99.90;;;;;;5059697;28;20312;-87
2022/07/01 12:42:33;;;;;;;9.30;9.00;;;15.40;99.90;;;;;;5066955;28;20245;-84
2022/07/01 12:45:07;;;;;;;9.48;9.18;;;15.40;99.90;;;;;;5080516;28;20238;-84
2022/07/01 12:47:39;;;;;;;9.60;9.30;;;15.10;99.90;;;;;;5081182;28;20273;-84
2022/07/01 12:50:17;;;;;;;9.50;9.20;;;15.00;99.90;;;;;;5077754;28;20243;-85
2022/07/01 12:52:58;;;;;;;8.98;8.75;;;15.00;99.90;;;;;;5076891;28;20227;-86
2022/07/01 12:55:26;;;;;;;9.23;8.93;;;15.00;99.90;;;;;;5072679;28;20309;-87
2022/07/01 12:57:59;;;;;;;9.23;8.93;;;15.00;99.90;;;;;;5066495;28;20297;-87
2022/07/01 13:00:30;;;;;;;9.45;9.15;;;15.10;99.90;;;;;;5061638;28;20265;-87
2022/07/01 13:03:13;;;;;;;9.88;9.57;;;15.10;99.90;;;;;;5059357;28;20224;-87
2022/07/01 13:05:45;;;;;;;10.20;9.90;;;15.00;99.90;;;;;;5058840;28;20254;-86
2022/07/01 13:08:16;;;;;;;9.60;9.30;;;14.90;99.90;;;;;;5059016;28;20238;-87
2022/07/01 13:10:48;;;;;;;10.00;9.70;;;14.90;99.90;;;;;;5058287;28;20289;-87
2022/07/01 13:13:20;;;;;;;9.60;9.30;;;14.90;99.90;;;;;;5058183;28;20230;-87
2022/07/01 13:15:52;;;;;;;9.57;9.27;;;14.80;99.90;;;;;;5058286;28;20231;-87
2022/07/01 13:18:20;;;;;;;9.55;9.25;;;14.70;99.90;;;;;;5058420;28;20617;-87
2022/07/01 13:20:55;;;;;;;9.77;9.48;;;14.60;99.90;;;;;;5057794;28;20292;-86
2022/07/01 13:23:23;;;;;;;9.80;9.50;;;14.50;99.90;;;;;;5058235;28;20289;-87
2022/07/01 13:25:51;;;;;;;9.40;9.10;;;14.50;99.90;;;;;;5057556;28;20254;-87